Terminal Aerodrome Forecast
Issued by NWS Louisville, KY

Home | Current Version | Previous Version | Text Only | Print | Product List | Glossary On
Versions: 1 2 3 4 5 6 7 8 9 10 11 12 13 14
000
FTUS43 KLMK 151734
TAFSDF
TAF
KSDF 151734Z 1518/1624 24013G23KT P6SM VCSH FEW011 SCT020 BKN040
      TEMPO 1518/1521 6SM -SHRA BKN011 OVC020
     FM152100 32013G21KT P6SM SCT030 BKN090
     FM160100 34008KT P6SM FEW040 SCT250
     FM161300 35007KT P6SM SCT040
      TEMPO 1615/1618 BKN040=

USA.gov is the U.S. government's official web portal to all federal, state and local government web resources and services.